Eugene, OR

5:35 AM PST on January 29, 2015 (GMT -0800)
Coburg Rd and Beltline | Change Station
CLOSE
Current Station
Personal Weather Station
Location: Eugene, OR
Elevation: 427 ft
Nearby Weather Stations

Elev 427 ft 44.09 °N, 123.07 °W | Updated 11 seconds ago

Fog
Fog
47.5 °F
Feels Like 48 °F
N
0.0
Wind Variable Wind from East
Gusts 0.4 mph

Today
High -- | Low -- °F
--% Chance of Precip.
Yesterday
High -- | Low -- °F
Precip. -- in
7:33 AM 5:18 PM
Waxing Gibbous, 74% visible
Pressure 30.29 in
Visibility 0.8 miles
Clouds Overcast 400 ft
Windchill 48 °F
Dew Point 44 °F
Humidity 89%
Rainfall 0.00 in
Snow Depth Not available.
UV 0 out of 12
Pollen 4.10 out of 12
Air Quality Not available.
Flu Activity Not available.
SPECI KEUG 291328Z AUTO 00000KT 3/4SM R16R/3500V5000FT BR OVC004 09/09 A3029 RMK AO2 T00940089

More Conditions Fewer Conditions

Pressure 30.29 in
Visibility 0.8 miles
Clouds Overcast 400 ft
Windchill 48 °F
Dew Point 44 °F
Humidity 89%
Rainfall 0.00 in
Snow Depth Not available.
UV 0 out of 12
Pollen 4.10 out of 12
Air Quality Not available.
Flu Activity Not available.
SPECI KEUG 291328Z AUTO 00000KT 3/4SM R16R/3500V5000FT BR OVC004 09/09 A3029 RMK AO2 T00940089

More Conditions Fewer Conditions

10-Day Weather Forecast

Almanac

Astronomy

Jan. 29, 2015 Rise Set
Actual Time
Civil Twilight
Nautical Twilight
Astronomical Twilight
Moon
Length of Visible Light
Length of Day
Tomorrow will be .
, % of the Moon is Illuminated

Today's Extremes

State Highs State Lows

Community

WunderPhotos

Upload Photos

1,791,427 photos uploaded!

WunderBlogs® & News

Nearby

Air Quality

  Air Quality AQ Index Pollutant
Not available.

Snow Depth

Station Depth Elevation

Earthquake Activity

City Distance Mag. Time & Date
Minimum magnitude displayed is 2.5.

Coastal Water Temperatures

Place Temperature

Nearby Weather Stations